createdAt,value
2019-01-29T00:00:52.177Z,6.92
2019-01-29T00:01:56.398Z,6.90
2019-01-29T00:03:00.876Z,6.91
2019-01-29T00:04:05.154Z,6.90
2019-01-29T00:05:09.503Z,6.89
2019-01-29T00:06:13.480Z,6.88
2019-01-29T00:07:17.700Z,6.85
2019-01-29T00:08:21.938Z,6.86
2019-01-29T00:09:26.409Z,6.85
2019-01-29T00:10:30.649Z,6.83
2019-01-29T00:11:34.623Z,6.83
2019-01-29T00:12:38.527Z,6.81
2019-01-29T00:13:42.507Z,6.82
2019-01-29T00:14:46.495Z,6.83
2019-01-29T00:15:50.475Z,6.82
2019-01-29T00:16:54.447Z,6.82
2019-01-29T00:17:58.425Z,6.83
2019-01-29T00:19:02.905Z,6.83
2019-01-29T00:20:07.085Z,6.82
2019-01-29T00:21:11.236Z,6.82
2019-01-29T00:22:15.378Z,6.82
2019-01-29T00:23:19.605Z,6.83
2019-01-29T00:24:23.825Z,6.83
2019-01-29T00:25:27.739Z,6.84
2019-01-29T00:26:31.790Z,6.84
2019-01-29T00:27:35.763Z,6.85
2019-01-29T00:28:39.919Z,6.87
2019-01-29T00:29:43.904Z,6.88
2019-01-29T00:30:47.941Z,6.89
2019-01-29T00:31:51.856Z,6.89
2019-01-29T00:32:55.835Z,6.89
2019-01-29T00:34:00.123Z,6.90
2019-01-29T00:35:04.804Z,6.91
2019-01-29T00:36:09.030Z,6.93
2019-01-29T00:37:13.035Z,6.94
2019-01-29T00:38:17.037Z,6.95
2019-01-29T00:39:21.321Z,6.95
2019-01-29T00:40:25.905Z,6.98
2019-01-29T00:41:29.886Z,6.96
2019-01-29T00:42:33.793Z,6.94
2019-01-29T00:43:38.141Z,6.95
2019-01-29T00:44:42.370Z,6.95
2019-01-29T00:45:46.379Z,6.93
2019-01-29T00:46:50.360Z,6.91
2019-01-29T00:47:54.374Z,6.94
2019-01-29T00:48:58.695Z,6.92
2019-01-29T00:50:02.680Z,6.91
2019-01-29T00:51:06.967Z,6.92
2019-01-29T00:52:11.191Z,6.93
2019-01-29T00:53:15.503Z,6.94
2019-01-29T00:54:19.995Z,6.93
2019-01-29T00:55:23.983Z,6.96
2019-01-29T00:56:28.305Z,6.98
2019-01-29T00:57:32.508Z,6.99
2019-01-29T00:58:36.495Z,6.97
2019-01-29T00:59:41.168Z,6.96
2019-01-29T01:00:45.743Z,6.97
2019-01-29T01:01:50.692Z,6.97
2019-01-29T01:02:54.811Z,6.98
2019-01-29T01:03:59.088Z,7.02
2019-01-29T01:05:03.818Z,6.98
2019-01-29T01:06:07.895Z,6.97
2019-01-29T01:07:11.888Z,6.96
2019-01-29T01:08:16.041Z,6.95
2019-01-29T01:09:20.024Z,6.95
2019-01-29T01:10:23.932Z,6.95
2019-01-29T01:11:27.908Z,6.93
2019-01-29T01:12:31.902Z,6.90
2019-01-29T01:13:36.050Z,6.90
2019-01-29T01:14:40.031Z,6.89
2019-01-29T01:15:44.008Z,6.88
2019-01-29T01:16:48.154Z,6.85
2019-01-29T01:17:52.143Z,6.84
2019-01-29T01:18:56.050Z,6.82
2019-01-29T01:20:00.023Z,6.79
2019-01-29T01:21:04.331Z,6.79
2019-01-29T01:22:08.625Z,6.78
2019-01-29T01:23:12.935Z,6.77
2019-01-29T01:24:17.243Z,6.77
2019-01-29T01:25:21.219Z,6.76
2019-01-29T01:26:25.460Z,6.71
2019-01-29T01:27:29.748Z,6.66
2019-01-29T01:28:33.966Z,6.63
2019-01-29T01:29:38.289Z,6.61
2019-01-29T01:30:42.263Z,6.57
2019-01-29T01:31:46.172Z,6.54
2019-01-29T01:32:50.507Z,6.50
2019-01-29T01:33:54.422Z,6.50
2019-01-29T01:34:58.585Z,6.50
2019-01-29T01:36:02.590Z,6.49
2019-01-29T01:37:06.590Z,6.53
2019-01-29T01:38:11.088Z,6.50
2019-01-29T01:39:15.068Z,6.50
2019-01-29T01:40:21.798Z,6.54
2019-01-29T01:41:26.027Z,6.54
2019-01-29T01:42:30.435Z,6.56
2019-01-29T01:43:34.418Z,6.57
2019-01-29T01:44:38.640Z,6.58
2019-01-29T01:45:42.601Z,6.58
2019-01-29T01:46:46.586Z,6.58
2019-01-29T01:47:50.676Z,6.59
2019-01-29T01:48:54.647Z,6.59
2019-01-29T01:49:58.625Z,6.58
2019-01-29T01:51:02.671Z,6.59
2019-01-29T01:52:06.571Z,6.60
2019-01-29T01:53:10.752Z,6.61
2019-01-29T01:54:15.222Z,6.61
2019-01-29T01:55:20.045Z,6.63
2019-01-29T01:56:23.941Z,6.65
2019-01-29T01:57:28.438Z,6.66
2019-01-29T01:58:32.676Z,6.66
2019-01-29T01:59:36.848Z,6.67
2019-01-29T02:00:40.919Z,6.67
2019-01-29T02:01:45.156Z,6.69
2019-01-29T02:02:49.131Z,6.71
2019-01-29T02:03:53.242Z,6.72
2019-01-29T02:04:57.216Z,6.73
2019-01-29T02:06:01.796Z,6.74
2019-01-29T02:07:07.254Z,6.73
2019-01-29T02:08:11.678Z,6.74
2019-01-29T02:09:15.750Z,6.74
2019-01-29T02:10:27.715Z,6.78
2019-01-29T02:11:31.895Z,6.77
2019-01-29T02:12:36.248Z,6.76
2019-01-29T02:13:40.204Z,6.75
2019-01-29T02:14:44.845Z,6.76
2019-01-29T02:15:49.151Z,6.74
2019-01-29T02:16:53.325Z,6.74
2019-01-29T02:17:57.671Z,6.74
2019-01-29T02:19:01.612Z,6.76
2019-01-29T02:20:07.205Z,6.76
2019-01-29T02:21:11.302Z,6.76
2019-01-29T02:22:15.648Z,6.76
2019-01-29T02:23:19.924Z,6.76
2019-01-29T02:24:23.943Z,6.78
2019-01-29T02:25:28.235Z,6.77
2019-01-29T02:26:32.545Z,6.80
2019-01-29T02:27:36.565Z,6.78
2019-01-29T02:28:40.569Z,6.76
2019-01-29T02:29:44.854Z,6.74
2019-01-29T02:30:49.187Z,6.74
2019-01-29T02:31:53.470Z,6.76
2019-01-29T02:32:57.461Z,6.74
2019-01-29T02:34:01.784Z,6.75
2019-01-29T02:35:06.301Z,6.75
2019-01-29T02:36:10.601Z,6.77
2019-01-29T02:37:14.847Z,6.78
2019-01-29T02:38:19.121Z,6.77
2019-01-29T02:39:23.686Z,6.79
2019-01-29T02:40:29.080Z,6.81
2019-01-29T02:41:33.401Z,6.80
2019-01-29T02:42:39.523Z,6.82
2019-01-29T02:43:43.478Z,6.83
2019-01-29T02:44:47.829Z,6.83
2019-01-29T02:45:51.830Z,6.84
2019-01-29T02:46:56.445Z,6.85
2019-01-29T02:48:00.447Z,6.86
2019-01-29T02:49:04.866Z,6.86
2019-01-29T02:50:09.684Z,6.87
2019-01-29T02:51:13.992Z,6.85
2019-01-29T02:52:17.987Z,6.86
2019-01-29T02:53:22.295Z,6.84
2019-01-29T02:54:26.815Z,6.86
2019-01-29T02:55:31.303Z,6.84
2019-01-29T02:56:35.294Z,6.83
2019-01-29T02:57:39.372Z,6.83
2019-01-29T02:58:43.537Z,6.83
2019-01-29T02:59:48.449Z,6.82
2019-01-29T03:00:52.752Z,6.81
2019-01-29T03:01:56.750Z,6.81
2019-01-29T03:03:00.674Z,6.81
2019-01-29T03:04:04.757Z,6.81
2019-01-29T03:05:09.729Z,6.82
2019-01-29T03:06:13.974Z,6.81
2019-01-29T03:07:18.235Z,6.80
2019-01-29T03:08:22.235Z,6.80
2019-01-29T03:09:26.754Z,6.82
2019-01-29T03:10:31.016Z,6.81
2019-01-29T03:11:35.867Z,6.80
2019-01-29T03:12:40.112Z,6.78
2019-01-29T03:13:44.110Z,6.74
2019-01-29T03:14:48.370Z,6.72
2019-01-29T03:15:53.364Z,6.71
2019-01-29T03:16:57.863Z,6.68
2019-01-29T03:18:01.852Z,6.65
2019-01-29T03:19:06.102Z,6.64
2019-01-29T03:20:10.704Z,6.62
2019-01-29T03:21:14.944Z,6.59
2019-01-29T03:22:19.184Z,6.57
2019-01-29T03:23:27.574Z,6.57
2019-01-29T03:24:28.897Z,6.57
2019-01-29T03:25:33.675Z,6.54
2019-01-29T03:26:37.917Z,6.53
2019-01-29T03:27:41.918Z,6.51
2019-01-29T03:28:46.204Z,6.49
2019-01-29T03:29:50.642Z,6.48
2019-01-29T03:30:54.919Z,6.47
2019-01-29T03:31:58.768Z,6.47
2019-01-29T03:33:03.021Z,6.45
2019-01-29T03:34:06.988Z,6.42
2019-01-29T03:35:11.844Z,6.44
2019-01-29T03:36:16.169Z,6.43
2019-01-29T03:37:20.459Z,6.43
2019-01-29T03:38:24.767Z,6.42
2019-01-29T03:39:29.077Z,6.40
2019-01-29T03:40:33.385Z,6.39
2019-01-29T03:41:37.848Z,6.38
2019-01-29T03:42:41.825Z,6.37
2019-01-29T03:43:46.049Z,6.36
2019-01-29T03:44:50.022Z,6.37
2019-01-29T03:45:54.209Z,6.34
2019-01-29T03:46:58.282Z,6.32
2019-01-29T03:48:02.719Z,6.30
2019-01-29T03:49:07.028Z,6.28
2019-01-29T03:50:12.191Z,6.27
2019-01-29T03:51:16.835Z,6.25
2019-01-29T03:52:21.076Z,6.25
2019-01-29T03:53:25.203Z,6.26
2019-01-29T03:54:29.697Z,6.25
2019-01-29T03:55:33.666Z,6.25
2019-01-29T03:56:38.238Z,6.26
2019-01-29T03:57:42.527Z,6.26
2019-01-29T03:58:46.503Z,6.26
2019-01-29T03:59:50.485Z,6.26
2019-01-29T04:00:55.341Z,6.32
2019-01-29T04:01:59.650Z,6.30
2019-01-29T04:03:03.625Z,6.30
2019-01-29T04:04:07.874Z,6.28
2019-01-29T04:05:12.086Z,6.26
2019-01-29T04:06:16.372Z,6.24
2019-01-29T04:07:20.717Z,6.25
2019-01-29T04:08:24.695Z,6.26
2019-01-29T04:09:29.094Z,6.26
2019-01-29T04:10:33.063Z,6.26
2019-01-29T04:11:37.601Z,6.25
2019-01-29T04:12:42.065Z,6.24
2019-01-29T04:13:46.290Z,6.23
2019-01-29T04:14:50.520Z,6.27
2019-01-29T04:15:54.731Z,6.24
2019-01-29T04:16:58.725Z,6.21
2019-01-29T04:18:02.730Z,6.24
2019-01-29T04:19:06.662Z,6.22
2019-01-29T04:20:13.370Z,6.22
2019-01-29T04:21:17.347Z,6.20
2019-01-29T04:22:21.353Z,6.19
2019-01-29T04:23:25.309Z,6.20
2019-01-29T04:24:29.782Z,6.19
2019-01-29T04:25:33.927Z,6.20
2019-01-29T04:26:38.088Z,6.23
2019-01-29T04:27:42.318Z,6.24
2019-01-29T04:28:46.980Z,6.27
2019-01-29T04:29:50.962Z,6.28
2019-01-29T04:30:54.955Z,6.32
2019-01-29T04:31:58.893Z,6.33
2019-01-29T04:33:03.133Z,6.33
2019-01-29T04:34:07.027Z,6.34
2019-01-29T04:35:11.013Z,6.34
2019-01-29T04:36:15.239Z,6.34
2019-01-29T04:37:19.472Z,6.35
2019-01-29T04:38:23.615Z,6.35
2019-01-29T04:39:27.514Z,6.36
2019-01-29T04:40:31.656Z,6.39
2019-01-29T04:41:35.621Z,6.38
2019-01-29T04:42:39.916Z,6.37
2019-01-29T04:43:44.249Z,6.37
2019-01-29T04:44:48.222Z,6.39
2019-01-29T04:45:52.196Z,6.41
2019-01-29T04:46:56.172Z,6.44
2019-01-29T04:48:00.411Z,6.44
2019-01-29T04:49:04.640Z,6.44
2019-01-29T04:50:10.749Z,6.45
2019-01-29T04:51:15.218Z,6.45
2019-01-29T04:52:19.199Z,6.47
2019-01-29T04:53:23.506Z,6.47
2019-01-29T04:54:28.401Z,6.48
2019-01-29T04:55:32.608Z,6.49
2019-01-29T04:56:36.582Z,6.53
2019-01-29T04:57:41.216Z,6.54
2019-01-29T04:58:45.204Z,6.56
2019-01-29T04:59:49.199Z,6.57
2019-01-29T05:00:53.628Z,6.57
2019-01-29T05:01:57.935Z,6.59
2019-01-29T05:03:02.567Z,6.60
2019-01-29T05:04:06.859Z,6.61
2019-01-29T05:05:11.351Z,6.62
2019-01-29T05:06:16.291Z,6.62
2019-01-29T05:07:20.598Z,6.62
2019-01-29T05:08:24.587Z,6.62
2019-01-29T05:09:29.261Z,6.62
2019-01-29T05:10:33.539Z,6.61
2019-01-29T05:11:37.843Z,6.61
2019-01-29T05:12:41.851Z,6.60
2019-01-29T05:13:46.039Z,6.65
2019-01-29T05:14:49.948Z,6.64
2019-01-29T05:15:54.557Z,6.62
2019-01-29T05:16:58.756Z,6.56
2019-01-29T05:18:03.065Z,6.54
2019-01-29T05:19:07.515Z,6.50
2019-01-29T05:20:14.035Z,6.50
2019-01-29T05:21:18.284Z,6.50
2019-01-29T05:22:22.549Z,6.49
2019-01-29T05:23:26.860Z,6.47
2019-01-29T05:24:31.165Z,6.46
2019-01-29T05:25:35.580Z,6.45
2019-01-29T05:26:39.802Z,6.43
2019-01-29T05:27:44.107Z,6.43
2019-01-29T05:28:48.399Z,6.43
2019-01-29T05:29:52.705Z,6.43
2019-01-29T05:30:56.937Z,6.43
2019-01-29T05:32:00.916Z,6.43
2019-01-29T05:33:05.139Z,6.45
2019-01-29T05:34:09.551Z,6.43
2019-01-29T05:35:13.737Z,6.42
2019-01-29T05:36:17.711Z,6.42
2019-01-29T05:37:21.679Z,6.42
2019-01-29T05:38:26.084Z,6.43
2019-01-29T05:39:30.075Z,6.43
2019-01-29T05:40:34.048Z,6.43
2019-01-29T05:41:38.026Z,6.44
2019-01-29T05:42:41.996Z,6.43
2019-01-29T05:43:46.236Z,6.43
2019-01-29T05:44:50.458Z,6.44
2019-01-29T05:45:54.877Z,6.44
2019-01-29T05:46:59.007Z,6.44
2019-01-29T05:48:03.239Z,6.43
2019-01-29T05:49:07.233Z,6.42
2019-01-29T05:50:11.853Z,6.43
2019-01-29T05:51:16.108Z,6.40
2019-01-29T05:52:20.333Z,6.41
2019-01-29T05:53:24.311Z,6.39
2019-01-29T05:54:28.301Z,6.40
2019-01-29T05:55:32.516Z,6.40
2019-01-29T05:56:36.745Z,6.42
2019-01-29T05:57:40.887Z,6.42
2019-01-29T05:58:45.360Z,6.44
2019-01-29T05:59:49.346Z,6.44
2019-01-29T06:00:53.333Z,6.41
2019-01-29T06:01:57.311Z,6.39
2019-01-29T06:03:01.788Z,6.38
2019-01-29T06:04:05.771Z,6.39
2019-01-29T06:05:09.885Z,6.42
2019-01-29T06:06:14.097Z,6.40
2019-01-29T06:07:18.334Z,6.40
2019-01-29T06:08:22.304Z,6.37
2019-01-29T06:09:26.568Z,6.35
2019-01-29T06:10:31.056Z,6.35
2019-01-29T06:11:35.037Z,6.33
2019-01-29T06:12:39.252Z,6.33
2019-01-29T06:13:43.157Z,6.34
2019-01-29T06:14:47.559Z,6.34
2019-01-29T06:15:51.812Z,6.33
2019-01-29T06:16:56.219Z,6.34
2019-01-29T06:18:00.528Z,6.36
2019-01-29T06:19:04.729Z,6.38
2019-01-29T06:20:12.272Z,6.37
2019-01-29T06:21:16.513Z,6.38
2019-01-29T06:22:20.850Z,6.39
2019-01-29T06:23:25.150Z,6.38
2019-01-29T06:24:29.505Z,6.40
2019-01-29T06:25:33.761Z,6.39
2019-01-29T06:26:37.783Z,6.40
2019-01-29T06:27:41.767Z,6.40
2019-01-29T06:28:45.980Z,6.41
2019-01-29T06:29:50.135Z,6.42
2019-01-29T06:30:54.672Z,6.41
2019-01-29T06:31:58.991Z,6.41
2019-01-29T06:33:03.318Z,6.41
2019-01-29T06:34:07.353Z,6.42
2019-01-29T06:35:13.138Z,6.40
2019-01-29T06:36:17.386Z,6.40
2019-01-29T06:37:21.678Z,6.39
2019-01-29T06:38:25.706Z,6.38
2019-01-29T06:39:30.278Z,6.37
2019-01-29T06:40:36.224Z,6.39
2019-01-29T06:41:40.213Z,6.37
2019-01-29T06:42:44.532Z,6.37
2019-01-29T06:43:49.046Z,6.37
2019-01-29T06:44:53.568Z,6.40
2019-01-29T06:45:57.564Z,6.42
2019-01-29T06:47:01.473Z,6.43
2019-01-29T06:48:05.912Z,6.47
2019-01-29T06:49:10.153Z,6.49
2019-01-29T06:50:16.241Z,6.51
2019-01-29T06:51:20.410Z,6.54
2019-01-29T06:52:24.747Z,6.55
2019-01-29T06:53:28.971Z,6.56
2019-01-29T06:54:34.393Z,6.55
2019-01-29T06:55:38.986Z,6.56
2019-01-29T06:56:43.222Z,6.58
2019-01-29T06:57:55.230Z,6.60
2019-01-29T06:58:53.162Z,6.64
2019-01-29T06:59:57.062Z,6.67
2019-01-29T07:01:01.296Z,6.69
2019-01-29T07:02:05.524Z,6.71
2019-01-29T07:03:09.746Z,6.74
2019-01-29T07:04:13.969Z,6.76
2019-01-29T07:05:18.262Z,6.77
2019-01-29T07:06:22.507Z,6.80
2019-01-29T07:07:26.410Z,6.70
2019-01-29T07:08:30.915Z,6.84
2019-01-29T07:09:35.307Z,6.85
2019-01-29T07:10:39.277Z,6.86
2019-01-29T07:11:43.262Z,6.86
2019-01-29T07:12:47.235Z,6.88
2019-01-29T07:13:51.462Z,6.87
2019-01-29T07:14:56.016Z,6.89
2019-01-29T07:16:07.651Z,6.90
2019-01-29T07:17:22.045Z,6.89
2019-01-29T07:18:36.196Z,6.86
2019-01-29T07:19:51.459Z,6.85
2019-01-29T07:20:55.795Z,6.83
2019-01-29T07:22:00.106Z,6.82
2019-01-29T07:23:04.688Z,6.82
2019-01-29T07:24:09.022Z,6.77
2019-01-29T07:25:13.691Z,6.78
2019-01-29T07:26:17.740Z,6.77
2019-01-29T07:27:22.011Z,6.79
2019-01-29T07:28:26.430Z,6.80
2019-01-29T07:29:30.480Z,6.80
2019-01-29T07:30:34.462Z,6.85
2019-01-29T07:31:38.705Z,6.87
2019-01-29T07:32:42.947Z,6.87
2019-01-29T07:33:47.157Z,6.86
2019-01-29T07:34:51.164Z,6.86
2019-01-29T07:35:55.487Z,6.87
2019-01-29T07:36:59.826Z,6.88
2019-01-29T07:38:04.043Z,6.89
2019-01-29T07:39:10.748Z,6.91
2019-01-29T07:40:14.969Z,6.94
2019-01-29T07:41:19.174Z,6.94
2019-01-29T07:42:23.176Z,6.95
2019-01-29T07:43:27.232Z,6.97
2019-01-29T07:44:31.208Z,7.00
2019-01-29T07:45:35.198Z,7.01
2019-01-29T07:46:39.198Z,7.01
2019-01-29T07:47:43.921Z,7.01
2019-01-29T07:48:48.080Z,7.03
2019-01-29T07:49:52.107Z,7.04
2019-01-29T07:50:56.159Z,7.00
2019-01-29T07:52:00.162Z,7.00
2019-01-29T07:53:04.596Z,7.00
2019-01-29T07:54:08.901Z,7.01
2019-01-29T07:55:12.984Z,7.02
2019-01-29T07:56:17.317Z,7.04
2019-01-29T07:57:21.816Z,7.04
2019-01-29T07:58:26.053Z,7.04
2019-01-29T07:59:33.193Z,7.06
2019-01-29T08:00:36.224Z,7.08
2019-01-29T08:01:40.442Z,7.10
2019-01-29T08:02:44.722Z,7.13
2019-01-29T08:03:48.630Z,7.13
2019-01-29T08:04:52.778Z,7.13
2019-01-29T08:05:57.017Z,7.13
2019-01-29T08:07:01.029Z,7.11
2019-01-29T08:08:05.598Z,7.13
2019-01-29T08:09:11.212Z,7.12
2019-01-29T08:10:15.438Z,7.12
2019-01-29T08:11:19.668Z,7.10
2019-01-29T08:12:23.665Z,7.09
2019-01-29T08:13:27.903Z,7.08
2019-01-29T08:14:32.260Z,7.08
2019-01-29T08:15:37.006Z,7.08
2019-01-29T08:16:41.227Z,7.10
2019-01-29T08:17:45.488Z,7.07
2019-01-29T08:18:49.600Z,7.08
2019-01-29T08:19:53.592Z,7.07
2019-01-29T08:20:58.076Z,7.07
2019-01-29T08:22:02.047Z,7.03
2019-01-29T08:23:06.044Z,7.05
2019-01-29T08:24:10.280Z,7.07
2019-01-29T08:25:14.328Z,7.10
2019-01-29T08:26:18.576Z,7.12
2019-01-29T08:27:22.801Z,7.12
2019-01-29T08:28:27.092Z,7.13
2019-01-29T08:29:31.316Z,7.15
2019-01-29T08:30:35.571Z,7.14
2019-01-29T08:31:40.099Z,7.13
2019-01-29T08:32:45.020Z,7.13
2019-01-29T08:33:49.555Z,7.13
2019-01-29T08:34:54.149Z,7.14
2019-01-29T08:35:58.433Z,7.17
2019-01-29T08:37:02.468Z,7.19
2019-01-29T08:38:06.489Z,7.20
2019-01-29T08:39:11.075Z,7.23
2019-01-29T08:40:15.488Z,7.24
2019-01-29T08:41:19.798Z,7.24
2019-01-29T08:42:24.230Z,7.26
2019-01-29T08:43:28.101Z,7.26
2019-01-29T08:44:32.181Z,7.27
2019-01-29T08:45:36.527Z,7.30
2019-01-29T08:46:41.232Z,7.33
2019-01-29T08:47:46.027Z,7.38
2019-01-29T08:48:50.707Z,7.35
2019-01-29T08:49:54.972Z,7.34
2019-01-29T08:50:58.965Z,7.36
2019-01-29T08:52:03.259Z,7.35
2019-01-29T08:53:07.593Z,7.34
2019-01-29T08:54:11.993Z,7.33
2019-01-29T08:55:16.080Z,7.32
2019-01-29T08:56:20.313Z,7.34
2019-01-29T08:57:24.313Z,7.36
2019-01-29T08:58:28.929Z,7.39
2019-01-29T08:59:32.945Z,7.40
2019-01-29T09:00:37.154Z,7.42
2019-01-29T09:01:41.545Z,7.40
2019-01-29T09:02:47.853Z,7.40
2019-01-29T09:03:51.700Z,7.38
2019-01-29T09:04:56.146Z,7.36
2019-01-29T09:06:00.160Z,7.36
2019-01-29T09:07:04.420Z,7.35
2019-01-29T09:08:08.408Z,7.36
2019-01-29T09:09:12.409Z,7.36
2019-01-29T09:10:18.848Z,7.36
2019-01-29T09:11:22.934Z,7.38
2019-01-29T09:12:27.264Z,7.41
2019-01-29T09:13:31.521Z,7.38
2019-01-29T09:14:35.584Z,7.37
2019-01-29T09:15:40.007Z,7.37
2019-01-29T09:16:44.519Z,7.37
2019-01-29T09:17:48.775Z,7.38
2019-01-29T09:18:52.753Z,7.37
2019-01-29T09:19:56.741Z,7.38
2019-01-29T09:21:00.993Z,7.40
2019-01-29T09:22:05.212Z,7.41
2019-01-29T09:23:09.690Z,7.40
2019-01-29T09:24:13.672Z,7.42
2019-01-29T09:25:20.884Z,7.41
2019-01-29T09:26:23.771Z,7.40
2019-01-29T09:27:27.931Z,7.41
2019-01-29T09:28:32.420Z,7.41
2019-01-29T09:29:37.216Z,7.42
2019-01-29T09:30:41.457Z,7.43
2019-01-29T09:31:45.691Z,7.44
2019-01-29T09:32:50.030Z,7.47
2019-01-29T09:33:54.264Z,7.49
2019-01-29T09:34:58.181Z,7.50
2019-01-29T09:36:02.418Z,7.51
2019-01-29T09:37:06.403Z,7.53
2019-01-29T09:38:10.631Z,7.56
2019-01-29T09:39:14.607Z,7.58
2019-01-29T09:40:19.282Z,7.59
2019-01-29T09:41:23.514Z,7.60
2019-01-29T09:42:27.746Z,7.62
2019-01-29T09:43:32.173Z,7.62
2019-01-29T09:44:36.330Z,7.63
2019-01-29T09:45:40.536Z,7.66
2019-01-29T09:46:44.797Z,7.68
2019-01-29T09:47:49.020Z,7.71
2019-01-29T09:48:53.004Z,7.73
2019-01-29T09:49:57.240Z,7.76
2019-01-29T09:51:01.565Z,7.79
2019-01-29T09:52:05.787Z,7.81
2019-01-29T09:53:10.073Z,7.82
2019-01-29T09:54:14.456Z,7.84
2019-01-29T09:55:28.174Z,7.85
2019-01-29T09:56:25.533Z,7.87
2019-01-29T09:57:30.275Z,7.87
2019-01-29T09:58:34.585Z,7.86
2019-01-29T09:59:38.893Z,7.88
2019-01-29T10:00:43.703Z,7.88
2019-01-29T10:01:47.702Z,7.86
2019-01-29T10:02:51.681Z,7.84
2019-01-29T10:03:56.026Z,7.85
2019-01-29T10:05:00.348Z,7.86
2019-01-29T10:06:04.640Z,7.87
2019-01-29T10:07:09.155Z,7.89
2019-01-29T10:08:13.145Z,7.91
2019-01-29T10:09:17.136Z,7.93
2019-01-29T10:10:21.112Z,7.95
2019-01-29T10:11:25.362Z,7.97
2019-01-29T10:12:29.975Z,8.00
2019-01-29T10:13:33.965Z,8.03
2019-01-29T10:14:37.956Z,8.04
2019-01-29T10:15:42.600Z,8.09
2019-01-29T10:16:46.582Z,8.10
2019-01-29T10:17:50.900Z,8.12
2019-01-29T10:18:55.106Z,8.14
2019-01-29T10:20:02.912Z,8.13
2019-01-29T10:21:05.764Z,8.14
2019-01-29T10:22:10.148Z,8.12
2019-01-29T10:23:14.692Z,8.14
2019-01-29T10:24:18.686Z,8.15
2019-01-29T10:25:23.004Z,8.15
2019-01-29T10:26:27.005Z,8.18
2019-01-29T10:27:31.621Z,8.19
2019-01-29T10:28:35.611Z,8.22
2019-01-29T10:29:39.846Z,8.24
2019-01-29T10:30:44.554Z,8.27
2019-01-29T10:31:48.549Z,8.30
2019-01-29T10:32:52.854Z,8.33
2019-01-29T10:33:57.164Z,8.36
2019-01-29T10:35:01.470Z,8.38
2019-01-29T10:36:05.761Z,8.39
2019-01-29T10:37:09.790Z,8.42
2019-01-29T10:38:14.089Z,8.45
2019-01-29T10:39:18.468Z,8.48
2019-01-29T10:40:23.559Z,8.50
2019-01-29T10:41:28.143Z,8.51
2019-01-29T10:42:32.143Z,8.53
2019-01-29T10:43:36.372Z,8.55
2019-01-29T10:44:40.653Z,8.56
2019-01-29T10:45:44.963Z,8.57
2019-01-29T10:46:49.269Z,8.60
2019-01-29T10:47:53.259Z,8.63
2019-01-29T10:48:57.884Z,8.65
2019-01-29T10:50:02.196Z,8.65
2019-01-29T10:51:06.285Z,8.68
2019-01-29T10:52:10.602Z,8.71
2019-01-29T10:53:14.732Z,8.72
2019-01-29T10:54:18.720Z,8.73
2019-01-29T10:55:23.366Z,8.78
2019-01-29T10:56:27.634Z,8.80
2019-01-29T10:57:31.642Z,8.82
2019-01-29T10:58:35.692Z,8.83
2019-01-29T10:59:39.984Z,8.84
2019-01-29T11:00:44.325Z,8.84
2019-01-29T11:01:48.965Z,8.88
2019-01-29T11:02:53.184Z,8.87
2019-01-29T11:03:57.182Z,8.85
2019-01-29T11:05:01.481Z,8.85
2019-01-29T11:06:05.938Z,8.86
2019-01-29T11:07:09.929Z,8.83
2019-01-29T11:08:14.180Z,8.84
2019-01-29T11:09:25.394Z,8.80
2019-01-29T11:10:24.148Z,8.78
2019-01-29T11:11:28.147Z,8.76
2019-01-29T11:12:32.138Z,8.75
2019-01-29T11:13:36.758Z,8.73
2019-01-29T11:14:40.745Z,8.73
2019-01-29T11:15:44.803Z,8.73
2019-01-29T11:16:49.107Z,8.71
2019-01-29T11:17:53.195Z,8.72
2019-01-29T11:19:03.168Z,8.73
2019-01-29T11:20:03.392Z,8.71
2019-01-29T11:21:07.709Z,8.71
2019-01-29T11:22:11.937Z,8.68
2019-01-29T11:23:16.313Z,8.67
2019-01-29T11:24:20.289Z,8.66
2019-01-29T11:25:25.970Z,8.66
2019-01-29T11:26:30.191Z,8.66
2019-01-29T11:27:34.106Z,8.68
2019-01-29T11:28:38.345Z,8.69
2019-01-29T11:29:42.564Z,8.72
2019-01-29T11:30:47.090Z,8.74
2019-01-29T11:31:51.570Z,8.74
2019-01-29T11:32:55.551Z,8.72
2019-01-29T11:33:59.801Z,8.73
2019-01-29T11:35:03.985Z,8.72
2019-01-29T11:36:08.462Z,8.72
2019-01-29T11:37:12.772Z,8.73
2019-01-29T11:38:16.753Z,8.69
2019-01-29T11:39:21.086Z,8.67
2019-01-29T11:40:26.643Z,8.66
2019-01-29T11:41:31.150Z,8.65
2019-01-29T11:42:35.136Z,8.64
2019-01-29T11:43:39.413Z,8.61
2019-01-29T11:44:43.593Z,8.58
2019-01-29T11:45:50.776Z,8.56
2019-01-29T11:46:54.749Z,8.54
2019-01-29T11:47:58.901Z,8.53
2019-01-29T11:49:03.149Z,8.50
2019-01-29T11:50:08.168Z,8.47
2019-01-29T11:51:12.469Z,8.45
2019-01-29T11:52:16.712Z,8.45
2019-01-29T11:53:20.772Z,8.43
2019-01-29T11:54:24.835Z,8.41
2019-01-29T11:55:28.825Z,8.40
2019-01-29T11:56:33.059Z,8.40
2019-01-29T11:57:37.048Z,8.38
2019-01-29T11:58:41.883Z,8.37
2019-01-29T11:59:46.479Z,8.38
2019-01-29T12:00:54.947Z,8.36
2019-01-29T12:01:59.190Z,8.35
2019-01-29T12:03:03.646Z,8.37
2019-01-29T12:04:07.950Z,8.37
2019-01-29T12:05:12.378Z,8.38
2019-01-29T12:06:16.784Z,8.40
2019-01-29T12:07:20.776Z,8.46
2019-01-29T12:08:25.104Z,8.47
2019-01-29T12:09:29.696Z,8.48
2019-01-29T12:10:34.107Z,8.51
2019-01-29T12:11:38.721Z,8.52
2019-01-29T12:12:42.975Z,8.54
2019-01-29T12:13:47.214Z,8.59
2019-01-29T12:14:51.850Z,8.62
2019-01-29T12:15:55.839Z,8.65
2019-01-29T12:17:00.162Z,8.67
2019-01-29T12:18:04.588Z,8.67
2019-01-29T12:19:08.585Z,8.68
2019-01-29T12:20:13.956Z,8.69
2019-01-29T12:21:17.975Z,8.70
2019-01-29T12:22:22.028Z,8.71
2019-01-29T12:23:26.016Z,8.74
2019-01-29T12:24:30.031Z,8.73
2019-01-29T12:25:34.464Z,8.76
2019-01-29T12:26:38.475Z,8.79
2019-01-29T12:27:42.458Z,8.82
2019-01-29T12:28:47.316Z,8.84
2019-01-29T12:29:51.319Z,8.87
2019-01-29T12:30:55.754Z,8.91
2019-01-29T12:31:59.984Z,8.94
2019-01-29T12:33:07.039Z,8.97
2019-01-29T12:34:11.392Z,9.02
2019-01-29T12:35:15.387Z,9.07
2019-01-29T12:36:19.619Z,9.11
2019-01-29T12:37:23.880Z,9.16
2019-01-29T12:38:28.107Z,9.21
2019-01-29T12:39:32.045Z,9.24
2019-01-29T12:40:37.096Z,9.27
2019-01-29T12:41:41.501Z,9.28
2019-01-29T12:42:45.794Z,9.30
2019-01-29T12:43:50.014Z,9.30
2019-01-29T12:44:54.253Z,9.30
2019-01-29T12:45:58.570Z,9.30
2019-01-29T12:47:02.549Z,9.30
2019-01-29T12:48:07.121Z,9.32
2019-01-29T12:49:11.094Z,9.33
2019-01-29T12:50:18.058Z,9.33
2019-01-29T12:51:37.073Z,9.33
2019-01-29T12:52:46.390Z,9.32
2019-01-29T12:53:50.366Z,9.33
2019-01-29T12:54:54.341Z,9.34
2019-01-29T12:55:58.601Z,9.34
2019-01-29T12:57:03.079Z,9.36
2019-01-29T12:58:07.727Z,9.37
2019-01-29T12:59:11.740Z,9.37
2019-01-29T13:00:17.013Z,9.40
2019-01-29T13:01:20.933Z,9.40
2019-01-29T13:02:24.909Z,9.43
2019-01-29T13:03:28.882Z,9.45
2019-01-29T13:04:33.292Z,9.48
2019-01-29T13:05:37.783Z,9.52
2019-01-29T13:06:41.943Z,9.54
2019-01-29T13:07:46.166Z,9.57
2019-01-29T13:08:50.146Z,9.61
2019-01-29T13:09:54.456Z,9.64
2019-01-29T13:10:58.852Z,9.65
2019-01-29T13:12:03.645Z,9.67
2019-01-29T13:13:08.196Z,9.68
2019-01-29T13:14:12.756Z,9.69
2019-01-29T13:15:19.419Z,9.68
2019-01-29T13:16:23.426Z,9.69
2019-01-29T13:17:27.345Z,9.68
2019-01-29T13:18:31.934Z,9.69
2019-01-29T13:19:36.187Z,9.72
2019-01-29T13:20:40.271Z,9.71
2019-01-29T13:21:44.272Z,9.74
2019-01-29T13:22:48.321Z,9.74
2019-01-29T13:23:52.976Z,9.73
2019-01-29T13:24:57.272Z,9.71
2019-01-29T13:26:01.278Z,9.69
2019-01-29T13:27:05.346Z,9.66
2019-01-29T13:28:09.952Z,9.66
2019-01-29T13:29:13.951Z,9.64
2019-01-29T13:30:24.275Z,9.61
2019-01-29T13:31:28.278Z,9.58
2019-01-29T13:32:32.269Z,9.51
2019-01-29T13:33:36.548Z,9.46
2019-01-29T13:34:40.622Z,9.42
2019-01-29T13:35:45.165Z,9.41
2019-01-29T13:36:49.165Z,9.40
2019-01-29T13:37:53.780Z,9.42
2019-01-29T13:38:57.768Z,9.44
2019-01-29T13:40:02.532Z,9.44
2019-01-29T13:41:07.222Z,9.46
2019-01-29T13:42:11.367Z,9.47
2019-01-29T13:43:15.281Z,9.49
2019-01-29T13:44:19.298Z,9.50
2019-01-29T13:45:23.774Z,9.51
2019-01-29T13:46:27.777Z,9.53
2019-01-29T13:47:31.763Z,9.51
2019-01-29T13:48:35.788Z,9.51
2019-01-29T13:49:40.088Z,9.50
2019-01-29T13:50:48.039Z,9.47
2019-01-29T13:51:52.348Z,9.47
2019-01-29T13:52:57.005Z,9.47
2019-01-29T13:54:01.241Z,9.46
2019-01-29T13:55:07.166Z,9.45
2019-01-29T13:56:11.627Z,9.42
2019-01-29T13:57:15.939Z,9.40
2019-01-29T13:58:20.040Z,9.36
2019-01-29T13:59:24.099Z,9.33
2019-01-29T14:00:30.193Z,9.28
2019-01-29T14:01:34.523Z,9.23
2019-01-29T14:02:38.821Z,9.19
2019-01-29T14:03:43.500Z,9.13
2019-01-29T14:04:47.492Z,9.09
2019-01-29T14:05:51.480Z,9.03
2019-01-29T14:06:55.491Z,8.99
2019-01-29T14:07:59.731Z,8.96
2019-01-29T14:09:07.651Z,8.94
2019-01-29T14:10:12.547Z,8.92
2019-01-29T14:11:16.531Z,8.91
2019-01-29T14:12:20.616Z,8.90
2019-01-29T14:13:24.862Z,8.74
2019-01-29T14:14:31.730Z,8.92
2019-01-29T14:15:39.706Z,8.93
2019-01-29T14:16:44.443Z,8.95
2019-01-29T14:17:48.746Z,8.96